sensor_id;sensor_type;location;lat;lon;timestamp;pressure;altitude;pressure_sealevel;temperature;humidity
9289;BME280;4683;50.864;12.086;2024-02-26T00:00:07;97807.63;;;2.54;100.00
9289;BME280;4683;50.864;12.086;2024-02-26T00:02:39;97807.78;;;2.44;100.00
9289;BME280;4683;50.864;12.086;2024-02-26T00:05:09;97805.66;;;2.48;100.00
9289;BME280;4683;50.864;12.086;2024-02-26T00:07:37;97800.78;;;2.45;100.00
9289;BME280;4683;50.864;12.086;2024-02-26T00:10:07;97799.81;;;2.46;100.00
9289;BME280;4683;50.864;12.086;2024-02-26T00:12:35;97799.81;;;2.46;100.00
9289;BME280;4683;50.864;12.086;2024-02-26T00:15:06;97802.75;;;2.43;100.00
9289;BME280;4683;50.864;12.086;2024-02-26T00:17:34;97791.84;;;2.39;100.00
9289;BME280;4683;50.864;12.086;2024-02-26T00:20:06;97793.94;;;2.36;100.00
9289;BME280;4683;50.864;12.086;2024-02-26T00:22:36;97795.91;;;2.34;100.00
9289;BME280;4683;50.864;12.086;2024-02-26T00:25:05;97785.97;;;2.29;100.00
9289;BME280;4683;50.864;12.086;2024-02-26T00:27:35;97781.25;;;2.24;100.00
9289;BME280;4683;50.864;12.086;2024-02-26T00:30:04;97779.94;;;2.28;100.00
9289;BME280;4683;50.864;12.086;2024-02-26T00:32:33;97778.34;;;2.27;100.00
9289;BME280;4683;50.864;12.086;2024-02-26T00:35:01;97779.28;;;2.26;100.00
9289;BME280;4683;50.864;12.086;2024-02-26T00:37:32;97780.44;;;2.24;100.00
9289;BME280;4683;50.864;12.086;2024-02-26T00:40:01;97774.72;;;2.20;100.00
9289;BME280;4683;50.864;12.086;2024-02-26T00:42:29;97771.50;;;2.18;100.00
9289;BME280;4683;50.864;12.086;2024-02-26T00:44:59;97773.09;;;2.11;100.00
9289;BME280;4683;50.864;12.086;2024-02-26T00:47:28;97763.47;;;2.03;100.00
9289;BME280;4683;50.864;12.086;2024-02-26T00:49:57;97757.78;;;2.00;100.00
9289;BME280;4683;50.864;12.086;2024-02-26T00:52:25;97760.41;;;2.00;100.00
9289;BME280;4683;50.864;12.086;2024-02-26T00:54:55;97751.75;;;1.99;100.00
9289;BME280;4683;50.864;12.086;2024-02-26T00:57:24;97746.06;;;2.04;100.00
9289;BME280;4683;50.864;12.086;2024-02-26T00:59:53;97739.91;;;2.05;100.00
9289;BME280;4683;50.864;12.086;2024-02-26T01:02:23;97736.00;;;2.01;100.00
9289;BME280;4683;50.864;12.086;2024-02-26T01:04:51;97741.19;;;1.93;100.00
9289;BME280;4683;50.864;12.086;2024-02-26T01:07:19;97730.78;;;1.93;100.00
9289;BME280;4683;50.864;12.086;2024-02-26T01:09:48;97733.88;;;1.96;100.00
9289;BME280;4683;50.864;12.086;2024-02-26T01:12:17;97727.88;;;1.96;100.00
9289;BME280;4683;50.864;12.086;2024-02-26T01:14:46;97733.56;;;1.99;100.00
9289;BME280;4683;50.864;12.086;2024-02-26T01:17:15;97726.91;;;1.97;100.00
9289;BME280;4683;50.864;12.086;2024-02-26T01:19:43;97726.59;;;2.00;100.00
9289;BME280;4683;50.864;12.086;2024-02-26T01:22:12;97721.38;;;2.00;100.00
9289;BME280;4683;50.864;12.086;2024-02-26T01:24:40;97712.91;;;1.98;100.00
9289;BME280;4683;50.864;12.086;2024-02-26T01:27:09;97723.28;;;1.90;100.00
9289;BME280;4683;50.864;12.086;2024-02-26T01:29:39;97719.72;;;1.83;100.00
9289;BME280;4683;50.864;12.086;2024-02-26T01:32:07;97710.75;;;1.77;100.00
9289;BME280;4683;50.864;12.086;2024-02-26T01:34:37;97711.91;;;1.74;100.00
9289;BME280;4683;50.864;12.086;2024-02-26T01:37:06;97715.47;;;1.73;100.00
9289;BME280;4683;50.864;12.086;2024-02-26T01:39:34;97717.72;;;1.68;100.00
9289;BME280;4683;50.864;12.086;2024-02-26T01:42:05;97709.47;;;1.73;100.00
9289;BME280;4683;50.864;12.086;2024-02-26T01:44:33;97712.06;;;1.81;100.00
9289;BME280;4683;50.864;12.086;2024-02-26T01:47:04;97723.94;;;1.84;100.00
9289;BME280;4683;50.864;12.086;2024-02-26T01:49:32;97728.47;;;1.82;100.00
9289;BME280;4683;50.864;12.086;2024-02-26T01:52:03;97725.53;;;1.76;100.00
9289;BME280;4683;50.864;12.086;2024-02-26T01:54:35;97722.28;;;1.74;100.00
9289;BME280;4683;50.864;12.086;2024-02-26T01:57:06;97724.38;;;1.71;100.00
9289;BME280;4683;50.864;12.086;2024-02-26T01:59:35;97725.06;;;1.73;100.00
9289;BME280;4683;50.864;12.086;2024-02-26T02:02:08;97730.72;;;1.76;100.00
9289;BME280;4683;50.864;12.086;2024-02-26T02:04:39;97730.09;;;1.74;100.00
9289;BME280;4683;50.864;12.086;2024-02-26T02:07:07;97728.47;;;1.73;100.00
9289;BME280;4683;50.864;12.086;2024-02-26T02:09:36;97732.38;;;1.77;100.00
9289;BME280;4683;50.864;12.086;2024-02-26T02:12:05;97733.03;;;1.80;100.00
9289;BME280;4683;50.864;12.086;2024-02-26T02:14:34;97733.34;;;1.76;100.00
9289;BME280;4683;50.864;12.086;2024-02-26T02:17:04;97733.00;;;1.71;100.00
9289;BME280;4683;50.864;12.086;2024-02-26T02:19:33;97728.13;;;1.68;100.00
9289;BME280;4683;50.864;12.086;2024-02-26T02:22:04;97740.44;;;1.66;100.00
9289;BME280;4683;50.864;12.086;2024-02-26T02:24:32;97735.41;;;1.65;100.00
9289;BME280;4683;50.864;12.086;2024-02-26T02:27:00;97734.28;;;1.59;100.00
9289;BME280;4683;50.864;12.086;2024-02-26T02:29:31;97741.38;;;1.57;100.00
9289;BME280;4683;50.864;12.086;2024-02-26T02:32:02;97737.97;;;1.57;100.00
9289;BME280;4683;50.864;12.086;2024-02-26T02:34:32;97744.19;;;1.64;100.00
9289;BME280;4683;50.864;12.086;2024-02-26T02:37:02;97742.88;;;1.68;100.00
9289;BME280;4683;50.864;12.086;2024-02-26T02:39:31;97742.88;;;1.68;100.00
9289;BME280;4683;50.864;12.086;2024-02-26T02:42:01;97742.06;;;1.67;100.00
9289;BME280;4683;50.864;12.086;2024-02-26T02:44:30;97726.81;;;1.64;100.00
9289;BME280;4683;50.864;12.086;2024-02-26T02:46:59;97732.31;;;1.61;100.00
9289;BME280;4683;50.864;12.086;2024-02-26T02:49:27;97733.59;;;1.57;100.00
9289;BME280;4683;50.864;12.086;2024-02-26T02:51:55;97731.81;;;1.58;100.00
9289;BME280;4683;50.864;12.086;2024-02-26T02:54:25;97731.00;;;1.57;100.00
9289;BME280;4683;50.864;12.086;2024-02-26T02:56:54;97735.38;;;1.57;100.00
9289;BME280;4683;50.864;12.086;2024-02-26T02:59:22;97734.56;;;1.56;100.00
9289;BME280;4683;50.864;12.086;2024-02-26T03:01:51;97730.28;;;1.39;100.00
9289;BME280;4683;50.864;12.086;2024-02-26T03:04:20;97731.84;;;1.23;100.00
9289;BME280;4683;50.864;12.086;2024-02-26T03:06:49;97732.25;;;1.11;100.00
9289;BME280;4683;50.864;12.086;2024-02-26T03:09:18;97732.34;;;1.01;100.00
9289;BME280;4683;50.864;12.086;2024-02-26T03:11:50;97733.78;;;0.95;100.00
9289;BME280;4683;50.864;12.086;2024-02-26T03:14:19;97725.53;;;1.00;100.00
9289;BME280;4683;50.864;12.086;2024-02-26T03:16:47;97724.66;;;1.17;100.00
9289;BME280;4683;50.864;12.086;2024-02-26T03:19:16;97720.00;;;1.29;100.00
9289;BME280;4683;50.864;12.086;2024-02-26T03:21:45;97724.56;;;1.35;100.00
9289;BME280;4683;50.864;12.086;2024-02-26T03:24:13;97715.66;;;1.38;100.00
9289;BME280;4683;50.864;12.086;2024-02-26T03:26:42;97722.47;;;1.39;100.00
9289;BME280;4683;50.864;12.086;2024-02-26T03:29:12;97720.53;;;1.41;100.00
9289;BME280;4683;50.864;12.086;2024-02-26T03:31:41;97724.09;;;1.40;100.00
9289;BME280;4683;50.864;12.086;2024-02-26T03:34:09;97719.38;;;1.35;100.00
9289;BME280;4683;50.864;12.086;2024-02-26T03:36:40;97724.72;;;1.34;100.00
9289;BME280;4683;50.864;12.086;2024-02-26T03:39:09;97727.59;;;1.22;100.00
9289;BME280;4683;50.864;12.086;2024-02-26T03:41:38;97730.97;;;1.15;100.00
9289;BME280;4683;50.864;12.086;2024-02-26T03:44:07;97727.88;;;1.11;100.00
9289;BME280;4683;50.864;12.086;2024-02-26T03:46:37;97734.84;;;1.11;100.00
9289;BME280;4683;50.864;12.086;2024-02-26T03:49:06;97723.44;;;1.04;100.00
9289;BME280;4683;50.864;12.086;2024-02-26T03:51:34;97725.91;;;1.05;100.00
9289;BME280;4683;50.864;12.086;2024-02-26T03:54:03;97723.94;;;1.07;100.00
9289;BME280;4683;50.864;12.086;2024-02-26T03:56:32;97726.06;;;1.12;100.00
9289;BME280;4683;50.864;12.086;2024-02-26T03:59:00;97735.34;;;1.14;100.00
9289;BME280;4683;50.864;12.086;2024-02-26T04:01:29;97738.75;;;1.15;100.00
9289;BME280;4683;50.864;12.086;2024-02-26T04:04:03;97745.06;;;1.12;100.00
9289;BME280;4683;50.864;12.086;2024-02-26T04:06:32;97734.69;;;1.12;100.00
9289;BME280;4683;50.864;12.086;2024-02-26T04:09:03;97739.56;;;1.15;100.00
9289;BME280;4683;50.864;12.086;2024-02-26T04:11:33;97743.44;;;1.11;100.00
9289;BME280;4683;50.864;12.086;2024-02-26T04:14:03;97741.81;;;1.10;100.00
9289;BME280;4683;50.864;12.086;2024-02-26T04:16:34;97736.28;;;1.05;100.00
9289;BME280;4683;50.864;12.086;2024-02-26T04:19:05;97749.44;;;1.12;100.00
9289;BME280;4683;50.864;12.086;2024-02-26T04:21:35;97745.75;;;1.14;100.00
9289;BME280;4683;50.864;12.086;2024-02-26T04:24:05;97759.06;;;1.19;100.00
9289;BME280;4683;50.864;12.086;2024-02-26T04:26:34;97750.94;;;1.14;100.00
9289;BME280;4683;50.864;12.086;2024-02-26T04:29:03;97756.13;;;1.14;100.00
9289;BME280;4683;50.864;12.086;2024-02-26T04:31:32;97752.03;;;1.12;100.00
9289;BME280;4683;50.864;12.086;2024-02-26T04:34:00;97757.25;;;1.12;100.00
9289;BME280;4683;50.864;12.086;2024-02-26T04:36:30;97756.44;;;1.11;100.00
9289;BME280;4683;50.864;12.086;2024-02-26T04:38:59;97753.66;;;1.13;100.00
9289;BME280;4683;50.864;12.086;2024-02-26T04:41:27;97748.63;;;1.11;100.00
9289;BME280;4683;50.864;12.086;2024-02-26T04:43:57;97753.78;;;1.03;100.00
9289;BME280;4683;50.864;12.086;2024-02-26T04:46:25;97751.69;;;1.07;100.00
9289;BME280;4683;50.864;12.086;2024-02-26T04:48:56;97753.31;;;1.08;100.00
9289;BME280;4683;50.864;12.086;2024-02-26T04:51:25;97758.44;;;0.99;100.00
9289;BME280;4683;50.864;12.086;2024-02-26T04:53:54;97754.16;;;0.90;100.00
9289;BME280;4683;50.864;12.086;2024-02-26T04:56:23;97753.88;;;0.93;100.00
9289;BME280;4683;50.864;12.086;2024-02-26T04:58:51;97759.59;;;0.97;100.00
9289;BME280;4683;50.864;12.086;2024-02-26T05:01:22;97743.50;;;0.93;100.00
9289;BME280;4683;50.864;12.086;2024-02-26T05:03:50;97749.50;;;0.94;100.00
9289;BME280;4683;50.864;12.086;2024-02-26T05:06:19;97754.59;;;1.04;100.00
9289;BME280;4683;50.864;12.086;2024-02-26T05:08:47;97742.78;;;1.09;100.00
9289;BME280;4683;50.864;12.086;2024-02-26T05:11:18;97743.09;;;1.06;100.00
9289;BME280;4683;50.864;12.086;2024-02-26T05:13:48;97742.22;;;0.97;100.00
9289;BME280;4683;50.864;12.086;2024-02-26T05:16:19;97739.78;;;0.96;100.00
9289;BME280;4683;50.864;12.086;2024-02-26T05:18:55;97735.88;;;0.92;100.00
9289;BME280;4683;50.864;12.086;2024-02-26T05:21:26;97739.88;;;0.86;100.00
9289;BME280;4683;50.864;12.086;2024-02-26T05:23:57;97733.84;;;0.78;100.00
9289;BME280;4683;50.864;12.086;2024-02-26T05:26:28;97728.78;;;0.76;100.00
9289;BME280;4683;50.864;12.086;2024-02-26T05:28:58;97727.50;;;0.80;100.00
9289;BME280;4683;50.864;12.086;2024-02-26T05:31:28;97730.91;;;0.81;100.00
9289;BME280;4683;50.864;12.086;2024-02-26T05:33:56;97722.84;;;0.84;100.00
9289;BME280;4683;50.864;12.086;2024-02-26T05:36:24;97724.75;;;0.82;100.00
9289;BME280;4683;50.864;12.086;2024-02-26T05:38:55;97723.66;;;0.84;100.00
9289;BME280;4683;50.864;12.086;2024-02-26T05:41:26;97719.25;;;0.85;100.00
9289;BME280;4683;50.864;12.086;2024-02-26T05:43:54;97719.88;;;0.79;100.00
9289;BME280;4683;50.864;12.086;2024-02-26T05:46:24;97725.72;;;0.81;100.00
9289;BME280;4683;50.864;12.086;2024-02-26T05:48:54;97729.00;;;0.83;100.00
9289;BME280;4683;50.864;12.086;2024-02-26T05:51:22;97732.31;;;0.93;100.00
9289;BME280;4683;50.864;12.086;2024-02-26T05:53:50;97738.31;;;0.93;100.00
9289;BME280;4683;50.864;12.086;2024-02-26T05:56:22;97741.41;;;0.97;100.00
9289;BME280;4683;50.864;12.086;2024-02-26T05:58:52;97738.81;;;0.97;100.00
9289;BME280;4683;50.864;12.086;2024-02-26T06:01:21;97735.25;;;0.98;100.00
9289;BME280;4683;50.864;12.086;2024-02-26T06:03:49;97747.59;;;0.96;100.00
9289;BME280;4683;50.864;12.086;2024-02-26T06:06:18;97752.22;;;1.10;100.00
9289;BME280;4683;50.864;12.086;2024-02-26T06:08:48;97761.34;;;1.22;100.00
9289;BME280;4683;50.864;12.086;2024-02-26T06:11:18;97765.94;;;1.29;100.00
9289;BME280;4683;50.864;12.086;2024-02-26T06:13:47;97770.00;;;1.31;100.00
9289;BME280;4683;50.864;12.086;2024-02-26T06:16:21;97762.72;;;1.35;100.00
9289;BME280;4683;50.864;12.086;2024-02-26T06:18:49;97765.66;;;1.40;100.00
9289;BME280;4683;50.864;12.086;2024-02-26T06:21:18;97777.69;;;1.41;100.00
9289;BME280;4683;50.864;12.086;2024-02-26T06:23:46;97772.84;;;1.46;100.00
9289;BME280;4683;50.864;12.086;2024-02-26T06:26:14;97779.38;;;1.50;100.00
9289;BME280;4683;50.864;12.086;2024-02-26T06:28:43;97784.91;;;1.55;100.00
9289;BME280;4683;50.864;12.086;2024-02-26T06:31:12;97778.44;;;1.59;100.00
9289;BME280;4683;50.864;12.086;2024-02-26T06:33:42;97773.09;;;1.61;100.00
9289;BME280;4683;50.864;12.086;2024-02-26T06:36:10;97787.19;;;1.58;100.00
9289;BME280;4683;50.864;12.086;2024-02-26T06:38:39;97787.19;;;1.58;100.00
9289;BME280;4683;50.864;12.086;2024-02-26T06:41:07;97788.31;;;1.56;100.00
9289;BME280;4683;50.864;12.086;2024-02-26T06:43:35;97798.66;;;1.47;100.00
9289;BME280;4683;50.864;12.086;2024-02-26T06:46:05;97790.72;;;1.49;100.00
9289;BME280;4683;50.864;12.086;2024-02-26T06:48:33;97792.25;;;1.60;100.00
9289;BME280;4683;50.864;12.086;2024-02-26T06:51:07;97791.09;;;1.62;100.00
9289;BME280;4683;50.864;12.086;2024-02-26T06:53:36;97792.44;;;1.66;100.00
9289;BME280;4683;50.864;12.086;2024-02-26T06:56:05;97791.16;;;1.70;100.00
9289;BME280;4683;50.864;12.086;2024-02-26T06:58:32;97788.84;;;1.67;100.00
9289;BME280;4683;50.864;12.086;2024-02-26T07:01:01;97803.50;;;1.68;100.00
9289;BME280;4683;50.864;12.086;2024-02-26T07:03:30;97802.66;;;1.68;100.00
9289;BME280;4683;50.864;12.086;2024-02-26T07:05:59;97807.63;;;1.53;100.00
9289;BME280;4683;50.864;12.086;2024-02-26T07:08:29;97806.47;;;1.47;100.00
9289;BME280;4683;50.864;12.086;2024-02-26T07:10:58;97810.22;;;1.53;100.00
9289;BME280;4683;50.864;12.086;2024-02-26T07:13:26;97810.28;;;1.61;100.00
9289;BME280;4683;50.864;12.086;2024-02-26T07:15:55;97815.78;;;1.58;100.00
9289;BME280;4683;50.864;12.086;2024-02-26T07:18:24;97811.91;;;1.62;100.00
9289;BME280;4683;50.864;12.086;2024-02-26T07:20:52;97814.25;;;1.73;100.00
9289;BME280;4683;50.864;12.086;2024-02-26T07:23:20;97810.09;;;1.97;100.00
9289;BME280;4683;50.864;12.086;2024-02-26T07:25:50;97798.91;;;2.13;100.00
9289;BME280;4683;50.864;12.086;2024-02-26T07:28:20;97802.06;;;2.33;100.00
9289;BME280;4683;50.864;12.086;2024-02-26T07:30:51;97808.44;;;2.38;100.00
9289;BME280;4683;50.864;12.086;2024-02-26T07:33:21;97809.88;;;2.33;100.00
9289;BME280;4683;50.864;12.086;2024-02-26T07:35:58;97816.41;;;2.37;100.00
9289;BME280;4683;50.864;12.086;2024-02-26T07:38:27;97815.44;;;2.62;100.00
9289;BME280;4683;50.864;12.086;2024-02-26T07:40:56;97808.47;;;2.71;100.00
9289;BME280;4683;50.864;12.086;2024-02-26T07:43:25;97816.94;;;2.89;100.00
9289;BME280;4683;50.864;12.086;2024-02-26T07:45:54;97803.56;;;3.17;100.00
9289;BME280;4683;50.864;12.086;2024-02-26T07:48:23;97801.44;;;3.28;100.00
9289;BME280;4683;50.864;12.086;2024-02-26T07:50:52;97806.47;;;3.22;100.00
9289;BME280;4683;50.864;12.086;2024-02-26T07:53:22;97817.06;;;3.20;100.00
9289;BME280;4683;50.864;12.086;2024-02-26T07:55:56;97812.19;;;3.25;100.00
9289;BME280;4683;50.864;12.086;2024-02-26T07:58:25;97812.97;;;3.50;100.00
9289;BME280;4683;50.864;12.086;2024-02-26T08:00:54;97816.25;;;3.36;100.00
9289;BME280;4683;50.864;12.086;2024-02-26T08:03:22;97822.56;;;3.50;100.00
9289;BME280;4683;50.864;12.086;2024-02-26T08:05:51;97828.72;;;3.57;100.00
9289;BME280;4683;50.864;12.086;2024-02-26T08:08:20;97822.41;;;3.51;100.00
9289;BME280;4683;50.864;12.086;2024-02-26T08:10:49;97827.31;;;3.38;100.00
9289;BME280;4683;50.864;12.086;2024-02-26T08:13:19;97835.31;;;3.37;100.00
9289;BME280;4683;50.864;12.086;2024-02-26T08:15:47;97830.72;;;3.47;100.00
9289;BME280;4683;50.864;12.086;2024-02-26T08:18:16;97825.31;;;3.56;100.00
9289;BME280;4683;50.864;12.086;2024-02-26T08:20:44;97822.81;;;3.71;100.00
9289;BME280;4683;50.864;12.086;2024-02-26T08:23:13;97830.50;;;3.73;100.00
9289;BME280;4683;50.864;12.086;2024-02-26T08:25:42;97834.72;;;3.82;100.00
9289;BME280;4683;50.864;12.086;2024-02-26T08:28:11;97842.66;;;3.89;100.00
9289;BME280;4683;50.864;12.086;2024-02-26T08:30:42;97835.72;;;3.73;100.00
9289;BME280;4683;50.864;12.086;2024-02-26T08:33:10;97842.66;;;3.89;100.00
9289;BME280;4683;50.864;12.086;2024-02-26T08:35:40;97842.94;;;4.02;100.00
9289;BME280;4683;50.864;12.086;2024-02-26T08:38:08;97833.47;;;4.09;100.00
9289;BME280;4683;50.864;12.086;2024-02-26T08:40:39;97827.03;;;4.20;100.00
9289;BME280;4683;50.864;12.086;2024-02-26T08:43:07;97838.78;;;4.24;100.00
9289;BME280;4683;50.864;12.086;2024-02-26T08:45:36;97839.84;;;4.38;100.00
9289;BME280;4683;50.864;12.086;2024-02-26T08:48:07;97846.59;;;4.55;100.00
9289;BME280;4683;50.864;12.086;2024-02-26T08:50:36;97847.47;;;4.70;100.00
9289;BME280;4683;50.864;12.086;2024-02-26T08:53:04;97852.06;;;4.91;100.00
9289;BME280;4683;50.864;12.086;2024-02-26T08:55:34;97847.06;;;5.04;100.00
9289;BME280;4683;50.864;12.086;2024-02-26T08:58:03;97849.06;;;5.17;100.00
9289;BME280;4683;50.864;12.086;2024-02-26T09:00:31;97843.31;;;5.22;100.00
9289;BME280;4683;50.864;12.086;2024-02-26T09:02:59;97841.97;;;5.26;100.00
9289;BME280;4683;50.864;12.086;2024-02-26T09:05:31;97846.25;;;5.42;100.00
9289;BME280;4683;50.864;12.086;2024-02-26T09:07:59;97851.13;;;5.45;100.00
9289;BME280;4683;50.864;12.086;2024-02-26T09:10:27;97848.06;;;5.56;100.00
9289;BME280;4683;50.864;12.086;2024-02-26T09:12:56;97849.97;;;5.62;100.00
9289;BME280;4683;50.864;12.086;2024-02-26T09:15:24;97846.66;;;5.68;100.00
9289;BME280;4683;50.864;12.086;2024-02-26T09:17:53;97849.28;;;5.83;100.00
9289;BME280;4683;50.864;12.086;2024-02-26T09:20:21;97851.16;;;5.89;100.00
9289;BME280;4683;50.864;12.086;2024-02-26T09:22:52;97858.13;;;5.97;100.00
9289;BME280;4683;50.864;12.086;2024-02-26T09:25:23;97853.38;;;6.00;100.00
9289;BME280;4683;50.864;12.086;2024-02-26T09:27:52;97857.38;;;6.32;100.00
9289;BME280;4683;50.864;12.086;2024-02-26T09:30:20;97855.69;;;6.61;100.00
9289;BME280;4683;50.864;12.086;2024-02-26T09:32:52;97859.47;;;6.73;100.00
9289;BME280;4683;50.864;12.086;2024-02-26T09:35:20;97856.22;;;6.93;100.00
9289;BME280;4683;50.864;12.086;2024-02-26T09:37:52;97850.97;;;7.14;100.00
9289;BME280;4683;50.864;12.086;2024-02-26T09:40:23;97843.72;;;7.44;100.00
9289;BME280;4683;50.864;12.086;2024-02-26T09:42:56;97845.28;;;7.67;100.00
9289;BME280;4683;50.864;12.086;2024-02-26T09:45:43;97844.50;;;7.66;100.00
9289;BME280;4683;50.864;12.086;2024-02-26T09:48:43;97844.44;;;7.87;100.00
9289;BME280;4683;50.864;12.086;2024-02-26T09:51:23;97848.38;;;8.11;100.00
9289;BME280;4683;50.864;12.086;2024-02-26T09:53:53;97842.59;;;8.29;100.00
9289;BME280;4683;50.864;12.086;2024-02-26T09:56:23;97852.19;;;8.44;100.00
9289;BME280;4683;50.864;12.086;2024-02-26T09:58:54;97845.69;;;8.39;100.00
9289;BME280;4683;50.864;12.086;2024-02-26T10:01:24;97847.06;;;8.35;100.00
9289;BME280;4683;50.864;12.086;2024-02-26T10:03:57;97838.78;;;8.32;100.00
9289;BME280;4683;50.864;12.086;2024-02-26T10:06:27;97854.06;;;8.15;100.00
9289;BME280;4683;50.864;12.086;2024-02-26T10:08:57;97857.53;;;8.22;100.00
9289;BME280;4683;50.864;12.086;2024-02-26T10:11:27;97849.75;;;8.42;100.00
9289;BME280;4683;50.864;12.086;2024-02-26T10:13:57;97856.66;;;8.50;100.00
9289;BME280;4683;50.864;12.086;2024-02-26T10:16:34;97858.13;;;8.59;100.00
9289;BME280;4683;50.864;12.086;2024-02-26T10:19:07;97858.75;;;8.68;100.00
9289;BME280;4683;50.864;12.086;2024-02-26T10:21:37;97857.34;;;8.78;100.00
9289;BME280;4683;50.864;12.086;2024-02-26T10:24:15;97859.97;;;8.78;100.00
9289;BME280;4683;50.864;12.086;2024-02-26T10:26:46;97858.53;;;8.76;100.00
9289;BME280;4683;50.864;12.086;2024-02-26T10:29:15;97855.72;;;8.84;100.00
9289;BME280;4683;50.864;12.086;2024-02-26T10:31:45;97857.13;;;8.73;100.00
9289;BME280;4683;50.864;12.086;2024-02-26T10:34:15;97870.69;;;8.83;100.00
9289;BME280;4683;50.864;12.086;2024-02-26T10:36:44;97871.56;;;9.04;100.00
9289;BME280;4683;50.864;12.086;2024-02-26T10:39:14;97864.88;;;9.08;100.00
9289;BME280;4683;50.864;12.086;2024-02-26T10:41:43;97864.88;;;9.08;100.00
9289;BME280;4683;50.864;12.086;2024-02-26T10:44:13;97865.31;;;9.31;100.00
9289;BME280;4683;50.864;12.086;2024-02-26T10:46:42;97853.94;;;9.57;100.00
9289;BME280;4683;50.864;12.086;2024-02-26T10:49:15;97845.47;;;9.55;100.00
9289;BME280;4683;50.864;12.086;2024-02-26T10:51:55;97849.50;;;9.58;100.00
9289;BME280;4683;50.864;12.086;2024-02-26T10:54:32;97847.47;;;9.40;100.00
9289;BME280;4683;50.864;12.086;2024-02-26T10:57:08;97846.47;;;9.48;100.00
9289;BME280;4683;50.864;12.086;2024-02-26T10:59:43;97849.13;;;9.54;100.00
9289;BME280;4683;50.864;12.086;2024-02-26T11:02:14;97851.72;;;9.68;100.00
9289;BME280;4683;50.864;12.086;2024-02-26T11:04:43;97851.72;;;9.68;100.00
9289;BME280;4683;50.864;12.086;2024-02-26T11:07:14;97841.78;;;9.76;100.00
9289;BME280;4683;50.864;12.086;2024-02-26T11:09:48;97838.84;;;10.18;100.00
9289;BME280;4683;50.864;12.086;2024-02-26T11:12:22;97850.63;;;10.02;100.00
9289;BME280;4683;50.864;12.086;2024-02-26T11:14:55;97839.75;;;9.78;100.00
9289;BME280;4683;50.864;12.086;2024-02-26T11:17:35;97845.00;;;9.85;100.00
9289;BME280;4683;50.864;12.086;2024-02-26T11:20:12;97854.72;;;9.84;100.00
9289;BME280;4683;50.864;12.086;2024-02-26T11:22:44;97853.94;;;9.71;100.00
9289;BME280;4683;50.864;12.086;2024-02-26T11:25:19;97860.84;;;9.65;100.00
9289;BME280;4683;50.864;12.086;2024-02-26T11:27:52;97859.63;;;9.61;100.00
9289;BME280;4683;50.864;12.086;2024-02-26T11:30:24;97862.25;;;9.61;100.00
9289;BME280;4683;50.864;12.086;2024-02-26T11:32:54;97861.03;;;9.70;100.00
9289;BME280;4683;50.864;12.086;2024-02-26T11:35:24;97856.16;;;9.80;100.00
9289;BME280;4683;50.864;12.086;2024-02-26T11:37:58;97862.44;;;9.79;100.00
9289;BME280;4683;50.864;12.086;2024-02-26T11:40:31;97860.22;;;9.83;100.00
9289;BME280;4683;50.864;12.086;2024-02-26T11:42:59;97863.84;;;9.88;100.00
9289;BME280;4683;50.864;12.086;2024-02-26T11:45:51;97852.72;;;9.86;100.00
9289;BME280;4683;50.864;12.086;2024-02-26T11:48:26;97855.84;;;10.22;100.00
9289;BME280;4683;50.864;12.086;2024-02-26T11:50:58;97862.06;;;10.47;100.00
9289;BME280;4683;50.864;12.086;2024-02-26T11:53:28;97859.16;;;10.62;100.00
9289;BME280;4683;50.864;12.086;2024-02-26T11:56:25;97862.09;;;10.40;100.00
9289;BME280;4683;50.864;12.086;2024-02-26T11:59:01;97856.03;;;10.33;100.00
9289;BME280;4683;50.864;12.086;2024-02-26T12:01:42;97862.34;;;10.32;100.00
9289;BME280;4683;50.864;12.086;2024-02-26T12:04:21;97857.25;;;10.37;100.00
9289;BME280;4683;50.864;12.086;2024-02-26T12:07:00;97869.97;;;10.54;100.00
9289;BME280;4683;50.864;12.086;2024-02-26T12:09:38;97864.41;;;10.69;100.00
9289;BME280;4683;50.864;12.086;2024-02-26T12:12:10;97870.44;;;10.76;100.00
9289;BME280;4683;50.864;12.086;2024-02-26T12:14:51;97871.06;;;10.71;100.00
9289;BME280;4683;50.864;12.086;2024-02-26T12:17:21;97874.38;;;10.60;100.00
9289;BME280;4683;50.864;12.086;2024-02-26T12:19:52;97872.28;;;10.75;100.00
9289;BME280;4683;50.864;12.086;2024-02-26T12:22:22;97872.84;;;11.15;100.00
9289;BME280;4683;50.864;12.086;2024-02-26T12:24:59;97866.47;;;11.55;100.00
9289;BME280;4683;50.864;12.086;2024-02-26T12:27:31;97871.31;;;11.83;100.00
9289;BME280;4683;50.864;12.086;2024-02-26T12:30:00;97871.28;;;11.58;100.00
9289;BME280;4683;50.864;12.086;2024-02-26T12:32:32;97870.19;;;11.72;100.00
9289;BME280;4683;50.864;12.086;2024-02-26T12:35:01;97872.22;;;11.70;100.00
9289;BME280;4683;50.864;12.086;2024-02-26T12:37:29;97874.84;;;11.70;100.00
9289;BME280;4683;50.864;12.086;2024-02-26T12:39:58;97873.63;;;11.73;100.00
9289;BME280;4683;50.864;12.086;2024-02-26T12:42:26;97881.31;;;11.74;100.00
9289;BME280;4683;50.864;12.086;2024-02-26T12:44:57;97877.97;;;11.85;100.00
9289;BME280;4683;50.864;12.086;2024-02-26T12:47:27;97876.53;;;12.08;100.00
9289;BME280;4683;50.864;12.086;2024-02-26T12:49:57;97882.56;;;12.15;100.00
9289;BME280;4683;50.864;12.086;2024-02-26T12:52:26;97885.97;;;12.04;100.00
9289;BME280;4683;50.864;12.086;2024-02-26T12:54:54;97880.72;;;11.97;100.00
9289;BME280;4683;50.864;12.086;2024-02-26T12:57:22;97872.66;;;11.92;100.00
9289;BME280;4683;50.864;12.086;2024-02-26T12:59:55;97879.50;;;12.00;100.00
9289;BME280;4683;50.864;12.086;2024-02-26T13:02:26;97871.63;;;12.11;100.00
9289;BME280;4683;50.864;12.086;2024-02-26T13:04:55;97876.09;;;11.92;100.00
9289;BME280;4683;50.864;12.086;2024-02-26T13:07:24;97884.03;;;11.92;100.00
9289;BME280;4683;50.864;12.086;2024-02-26T13:09:53;97889.31;;;11.92;100.00
9289;BME280;4683;50.864;12.086;2024-02-26T13:12:23;97890.38;;;11.85;100.00
9289;BME280;4683;50.864;12.086;2024-02-26T13:15:00;97890.28;;;11.73;100.00
9289;BME280;4683;50.864;12.086;2024-02-26T13:17:32;97895.09;;;11.83;100.00
9289;BME280;4683;50.864;12.086;2024-02-26T13:20:01;97896.97;;;12.01;100.00
9289;BME280;4683;50.864;12.086;2024-02-26T13:22:30;97898.44;;;12.15;100.00
9289;BME280;4683;50.864;12.086;2024-02-26T13:25:00;97904.63;;;12.27;100.00